createdAt,value
2023-04-27T00:01:44.511Z,1.42
2023-04-27T00:04:14.464Z,1.52
2023-04-27T00:06:43.228Z,1.67
2023-04-27T00:09:10.871Z,1.70
2023-04-27T00:11:38.455Z,1.60
2023-04-27T00:14:05.910Z,1.67
2023-04-27T00:16:33.519Z,1.95
2023-04-27T00:19:01.611Z,2.03
2023-04-27T00:21:29.267Z,1.45
2023-04-27T00:23:56.669Z,1.67
2023-04-27T00:26:24.207Z,1.80
2023-04-27T00:28:53.644Z,1.90
2023-04-27T00:31:21.324Z,1.58
2023-04-27T00:33:49.974Z,1.77
2023-04-27T00:36:17.553Z,1.55
2023-04-27T00:38:45.027Z,1.90
2023-04-27T00:41:12.488Z,1.70
2023-04-27T00:43:47.128Z,1.42
2023-04-27T00:46:16.673Z,1.30
2023-04-27T00:48:44.954Z,1.75
2023-04-27T00:51:12.652Z,1.55
2023-04-27T00:53:40.263Z,1.45
2023-04-27T00:56:09.020Z,1.90
2023-04-27T00:58:36.638Z,1.63
2023-04-27T01:01:05.703Z,1.50
2023-04-27T01:03:33.395Z,1.85
2023-04-27T01:06:01.814Z,1.70
2023-04-27T01:08:30.091Z,1.42
2023-04-27T01:10:57.695Z,1.35
2023-04-27T01:13:25.283Z,1.35
2023-04-27T01:15:52.769Z,1.52
2023-04-27T01:18:20.155Z,1.48
2023-04-27T01:20:47.741Z,1.50
2023-04-27T01:23:17.334Z,1.98
2023-04-27T01:25:45.448Z,1.58
2023-04-27T01:28:12.903Z,1.60
2023-04-27T01:30:40.329Z,1.60
2023-04-27T01:33:07.824Z,1.70
2023-04-27T01:35:35.539Z,1.48
2023-04-27T01:38:02.964Z,1.42
2023-04-27T01:40:30.618Z,1.45
2023-04-27T01:42:58.134Z,1.70
2023-04-27T01:45:25.725Z,1.58
2023-04-27T01:47:53.617Z,1.80
2023-04-27T01:50:21.612Z,1.67
2023-04-27T01:52:49.212Z,1.55
2023-04-27T01:55:16.773Z,1.90
2023-04-27T01:57:44.311Z,1.50
2023-04-27T02:00:12.981Z,2.45
2023-04-27T02:02:51.413Z,1.55
2023-04-27T02:05:19.974Z,1.50
2023-04-27T02:07:49.478Z,1.60
2023-04-27T02:10:17.084Z,1.25
2023-04-27T02:12:45.934Z,1.98
2023-04-27T02:15:13.497Z,1.70
2023-04-27T02:17:41.200Z,2.00
2023-04-27T02:20:10.056Z,1.40
2023-04-27T02:22:37.675Z,1.38
2023-04-27T02:25:05.569Z,1.55
2023-04-27T02:27:33.039Z,1.92
2023-04-27T02:30:05.450Z,1.90
2023-04-27T02:32:33.800Z,1.45
2023-04-27T02:35:02.843Z,1.40
2023-04-27T02:37:31.050Z,1.77
2023-04-27T02:39:58.571Z,1.85
2023-04-27T02:42:26.484Z,1.98
2023-04-27T02:44:54.451Z,2.13
2023-04-27T02:47:21.907Z,1.83
2023-04-27T02:49:49.473Z,1.58
2023-04-27T02:52:16.991Z,1.85
2023-04-27T02:54:44.407Z,1.73
2023-04-27T02:57:11.991Z,2.05
2023-04-27T02:59:39.558Z,1.85
2023-04-27T03:02:07.773Z,1.85
2023-04-27T03:04:36.733Z,1.42
2023-04-27T03:07:04.659Z,2.05
2023-04-27T03:09:32.119Z,2.05
2023-04-27T03:11:59.715Z,2.10
2023-04-27T03:14:27.708Z,2.03
2023-04-27T03:16:57.074Z,1.92
2023-04-27T03:19:24.625Z,1.77
2023-04-27T03:21:52.140Z,1.83
2023-04-27T03:24:19.705Z,1.67
2023-04-27T03:26:47.247Z,1.63
2023-04-27T03:29:14.898Z,2.30
2023-04-27T03:31:42.668Z,1.90
2023-04-27T03:34:12.810Z,1.40
2023-04-27T03:36:40.451Z,2.20
2023-04-27T03:39:11.084Z,2.03
2023-04-27T03:41:38.759Z,1.75
2023-04-27T03:44:07.094Z,1.90
2023-04-27T03:46:35.165Z,2.00
2023-04-27T03:49:03.295Z,1.80
2023-04-27T03:51:35.085Z,1.90
2023-04-27T03:54:02.634Z,1.48
2023-04-27T03:56:30.736Z,1.70
2023-04-27T03:58:59.193Z,1.70
2023-04-27T04:01:34.079Z,2.13
2023-04-27T04:04:02.001Z,2.10
2023-04-27T04:06:29.600Z,1.98
2023-04-27T04:08:57.373Z,1.80
2023-04-27T04:11:26.110Z,1.50
2023-04-27T04:13:56.801Z,2.25
2023-04-27T04:16:24.606Z,2.05
2023-04-27T04:18:53.959Z,2.13
2023-04-27T04:21:22.172Z,2.70
2023-04-27T04:23:49.949Z,2.10
2023-04-27T04:26:20.529Z,1.80
2023-04-27T04:28:49.075Z,2.08
2023-04-27T04:31:18.311Z,2.53
2023-04-27T04:33:45.986Z,2.70
2023-04-27T04:36:15.940Z,1.70
2023-04-27T04:38:43.441Z,1.60
2023-04-27T04:41:11.172Z,2.40
2023-04-27T04:43:38.655Z,2.00
2023-04-27T04:46:07.610Z,2.17
2023-04-27T04:48:35.706Z,1.80
2023-04-27T04:51:06.422Z,1.83
2023-04-27T04:53:34.835Z,2.28
2023-04-27T04:56:12.847Z,1.60
2023-04-27T04:58:40.815Z,1.98
2023-04-27T05:01:08.480Z,1.73
2023-04-27T05:03:36.344Z,1.77
2023-04-27T05:06:03.934Z,2.03
2023-04-27T05:08:31.394Z,2.05
2023-04-27T05:10:58.922Z,1.67
2023-04-27T05:13:26.950Z,1.58
2023-04-27T05:15:54.908Z,1.85
2023-04-27T05:18:22.388Z,1.73
2023-04-27T05:20:49.826Z,1.98
2023-04-27T05:23:17.282Z,1.90
2023-04-27T05:25:44.746Z,1.67
2023-04-27T05:28:12.325Z,1.95
2023-04-27T05:30:39.903Z,2.47
2023-04-27T05:33:07.431Z,1.95
2023-04-27T05:35:35.479Z,1.90
2023-04-27T05:38:03.417Z,2.17
2023-04-27T05:40:30.901Z,2.08
2023-04-27T05:42:58.999Z,1.70
2023-04-27T05:45:26.484Z,1.90
2023-04-27T05:47:53.901Z,2.22
2023-04-27T05:50:21.584Z,1.90
2023-04-27T05:52:48.984Z,1.77
2023-04-27T05:55:16.430Z,1.98
2023-04-27T05:57:43.795Z,1.90
2023-04-27T06:00:12.773Z,1.90
2023-04-27T06:02:40.695Z,2.20
2023-04-27T06:05:08.812Z,2.13
2023-04-27T06:07:37.562Z,1.80
2023-04-27T06:10:06.016Z,2.10
2023-04-27T06:12:33.521Z,2.13
2023-04-27T06:15:03.203Z,1.83
2023-04-27T06:17:30.693Z,2.47
2023-04-27T06:19:58.299Z,2.35
2023-04-27T06:22:25.757Z,2.60
2023-04-27T06:24:53.238Z,2.25
2023-04-27T06:27:20.801Z,2.17
2023-04-27T06:29:48.246Z,2.53
2023-04-27T06:32:16.000Z,2.78
2023-04-27T06:34:43.571Z,2.55
2023-04-27T06:37:11.159Z,2.47
2023-04-27T06:39:39.304Z,2.00
2023-04-27T06:42:06.963Z,2.38
2023-04-27T06:44:34.424Z,3.00
2023-04-27T06:47:02.074Z,2.28
2023-04-27T06:49:29.532Z,2.10
2023-04-27T06:52:02.874Z,2.60
2023-04-27T06:54:30.495Z,2.35
2023-04-27T06:56:57.998Z,2.67
2023-04-27T06:59:25.632Z,3.15
2023-04-27T07:01:53.317Z,2.40
2023-04-27T07:04:20.999Z,2.47
2023-04-27T07:06:48.563Z,2.40
2023-04-27T07:09:27.043Z,2.50
2023-04-27T07:11:55.833Z,2.55
2023-04-27T07:14:23.286Z,2.38
2023-04-27T07:16:50.918Z,2.33
2023-04-27T07:19:18.371Z,2.75
2023-04-27T07:21:45.978Z,2.83
2023-04-27T07:24:13.453Z,2.35
2023-04-27T07:26:41.496Z,2.20
2023-04-27T07:29:25.565Z,2.35
2023-04-27T07:31:55.934Z,2.63
2023-04-27T07:34:24.067Z,2.88
2023-04-27T07:36:54.462Z,2.78
2023-04-27T07:39:22.481Z,2.60
2023-04-27T07:41:50.260Z,2.92
2023-04-27T07:44:19.358Z,2.70
2023-04-27T07:46:50.212Z,2.97
2023-04-27T07:49:17.827Z,2.38
2023-04-27T07:51:45.578Z,2.92
2023-04-27T07:54:13.106Z,2.58
2023-04-27T07:56:43.776Z,2.58
2023-04-27T07:59:11.665Z,2.95
2023-04-27T08:01:39.556Z,2.50
2023-04-27T08:04:07.324Z,2.20
2023-04-27T08:06:38.045Z,2.40
2023-04-27T08:09:06.056Z,2.90
2023-04-27T08:11:33.532Z,2.83
2023-04-27T08:14:01.135Z,2.78
2023-04-27T08:16:28.616Z,3.20
2023-04-27T08:18:57.487Z,2.45
2023-04-27T08:21:28.512Z,3.05
2023-04-27T08:23:56.645Z,2.50
2023-04-27T08:26:26.259Z,2.65
2023-04-27T08:28:54.221Z,3.05
2023-04-27T08:31:22.146Z,2.83
2023-04-27T08:33:49.776Z,2.78
2023-04-27T08:36:17.209Z,2.97
2023-04-27T08:38:44.816Z,3.22
2023-04-27T08:41:21.473Z,3.35
2023-04-27T08:43:53.781Z,2.63
2023-04-27T08:46:27.298Z,3.38
2023-04-27T08:48:55.829Z,3.28
2023-04-27T08:51:25.545Z,2.72
2023-04-27T08:53:55.224Z,3.20
2023-04-27T08:56:29.186Z,3.65
2023-04-27T08:58:58.114Z,2.72
2023-04-27T09:01:27.459Z,3.47
2023-04-27T09:04:00.705Z,3.25
2023-04-27T09:06:33.016Z,3.10
2023-04-27T09:09:01.459Z,3.92
2023-04-27T09:11:39.496Z,4.20
2023-04-27T09:14:21.401Z,3.22
2023-04-27T09:16:59.697Z,3.55
2023-04-27T09:19:29.042Z,3.20
2023-04-27T09:22:15.523Z,4.07
2023-04-27T09:24:53.171Z,3.20
2023-04-27T09:27:22.218Z,3.50
2023-04-27T09:29:49.827Z,3.42
2023-04-27T09:32:23.129Z,3.00
2023-04-27T09:34:50.674Z,3.65
2023-04-27T09:37:19.294Z,3.55
2023-04-27T09:39:47.254Z,3.15
2023-04-27T09:42:15.974Z,3.60
2023-04-27T09:44:43.469Z,4.18
2023-04-27T09:47:11.241Z,3.63
2023-04-27T09:49:38.958Z,3.50
2023-04-27T09:52:06.564Z,3.90
2023-04-27T09:54:35.658Z,3.55
2023-04-27T09:57:21.785Z,3.35
2023-04-27T10:00:17.061Z,4.47
2023-04-27T10:03:11.010Z,3.80
2023-04-27T10:06:14.965Z,3.35
2023-04-27T10:08:42.593Z,3.80
2023-04-27T10:11:19.435Z,3.85
2023-04-27T10:13:54.974Z,3.42
2023-04-27T10:16:23.186Z,4.88
2023-04-27T10:18:57.030Z,4.85
2023-04-27T10:21:24.583Z,4.20
2023-04-27T10:23:52.662Z,3.95
2023-04-27T10:26:28.252Z,4.00
2023-04-27T10:29:09.117Z,3.50
2023-04-27T10:31:44.213Z,3.67
2023-04-27T10:34:16.066Z,3.63
2023-04-27T10:36:43.990Z,4.10
2023-04-27T10:39:39.799Z,3.50
2023-04-27T10:42:13.889Z,4.20
2023-04-27T10:44:41.495Z,3.42
2023-04-27T10:47:23.680Z,4.43
2023-04-27T10:49:54.622Z,3.65
2023-04-27T10:52:22.143Z,3.47
2023-04-27T10:54:49.678Z,3.83
2023-04-27T10:57:17.271Z,3.97
2023-04-27T10:59:49.890Z,4.00
2023-04-27T11:02:18.180Z,3.92
2023-04-27T11:04:46.891Z,4.03
2023-04-27T11:07:25.486Z,3.83
2023-04-27T11:09:53.179Z,4.00
2023-04-27T11:12:21.628Z,3.10
2023-04-27T11:14:49.235Z,3.60
2023-04-27T11:17:16.711Z,3.95
2023-04-27T11:19:47.817Z,3.78
2023-04-27T11:22:19.262Z,3.80
2023-04-27T11:24:48.975Z,3.75
2023-04-27T11:27:17.632Z,2.65
2023-04-27T11:29:45.769Z,3.35
2023-04-27T11:32:21.106Z,3.15
2023-04-27T11:34:56.110Z,3.78
2023-04-27T11:37:28.295Z,3.58
2023-04-27T11:40:00.062Z,3.85
2023-04-27T11:42:29.415Z,3.50
2023-04-27T11:45:07.196Z,3.88
2023-04-27T11:47:36.127Z,4.13
2023-04-27T11:50:07.462Z,3.97
2023-04-27T11:52:36.496Z,3.42
2023-04-27T11:55:05.184Z,4.00
2023-04-27T11:57:35.920Z,4.05
2023-04-27T12:00:14.029Z,5.03
2023-04-27T12:02:43.256Z,4.22
2023-04-27T12:05:13.236Z,4.20
2023-04-27T12:07:41.534Z,3.50
2023-04-27T12:10:09.664Z,3.55
2023-04-27T12:12:37.258Z,4.50
2023-04-27T12:15:05.187Z,3.67
2023-04-27T12:17:33.148Z,3.45
2023-04-27T12:20:00.674Z,3.80
2023-04-27T12:22:28.903Z,4.13
2023-04-27T12:24:56.886Z,3.63
2023-04-27T12:27:24.368Z,3.50
2023-04-27T12:29:54.149Z,4.00
2023-04-27T12:32:21.691Z,4.57
2023-04-27T12:34:49.134Z,3.47
2023-04-27T12:37:16.694Z,3.30
2023-04-27T12:39:44.107Z,3.63
2023-04-27T12:42:11.794Z,3.25
2023-04-27T12:44:39.236Z,4.05
2023-04-27T12:47:06.854Z,4.30
2023-04-27T12:49:34.426Z,4.40
2023-04-27T12:52:01.941Z,4.45
2023-04-27T12:54:29.397Z,3.97
2023-04-27T12:56:57.174Z,4.40
2023-04-27T12:59:24.749Z,4.30
2023-04-27T13:01:52.816Z,3.83
2023-04-27T13:04:22.225Z,4.47
2023-04-27T13:06:50.515Z,4.15
2023-04-27T13:09:18.043Z,5.82
2023-04-27T13:11:45.672Z,4.28
2023-04-27T13:14:13.829Z,4.18
2023-04-27T13:16:42.545Z,4.40
2023-04-27T13:19:10.290Z,3.53
2023-04-27T13:21:38.168Z,4.00
2023-04-27T13:24:06.062Z,3.50
2023-04-27T13:26:34.159Z,3.72
2023-04-27T13:29:04.594Z,4.80
2023-04-27T13:31:35.531Z,4.93
2023-04-27T13:34:04.774Z,4.03
2023-04-27T13:36:32.283Z,3.85
2023-04-27T13:38:59.712Z,4.18
2023-04-27T13:41:27.878Z,4.05
2023-04-27T13:43:55.354Z,4.25
2023-04-27T13:46:22.942Z,5.28
2023-04-27T13:48:50.332Z,3.45
2023-04-27T13:51:17.919Z,4.20
2023-04-27T13:53:46.318Z,4.07
2023-04-27T13:56:13.789Z,4.30
2023-04-27T13:58:41.772Z,3.88
2023-04-27T14:01:09.286Z,5.13
2023-04-27T14:03:37.082Z,4.40
2023-04-27T14:06:04.894Z,4.50
2023-04-27T14:08:32.544Z,4.72
2023-04-27T14:11:00.036Z,6.05
2023-04-27T14:13:27.491Z,4.25
2023-04-27T14:15:54.974Z,3.90
2023-04-27T14:18:27.481Z,4.57
2023-04-27T14:20:59.718Z,5.55
2023-04-27T14:23:27.276Z,4.32
2023-04-27T14:25:54.765Z,4.00
2023-04-27T14:28:22.199Z,5.63
2023-04-27T14:30:49.835Z,5.63
2023-04-27T14:33:18.785Z,5.13
2023-04-27T14:35:46.248Z,4.38
2023-04-27T14:38:13.694Z,4.80
2023-04-27T14:40:41.353Z,4.05
2023-04-27T14:43:08.906Z,5.53
2023-04-27T14:45:47.702Z,4.53
2023-04-27T14:48:19.118Z,4.95
2023-04-27T14:50:46.980Z,5.22
2023-04-27T14:53:14.426Z,5.93
2023-04-27T14:55:45.804Z,5.43
2023-04-27T14:58:13.591Z,6.03
2023-04-27T15:00:41.057Z,5.25
2023-04-27T15:03:09.107Z,7.15
2023-04-27T15:05:36.804Z,5.45
2023-04-27T15:08:04.389Z,7.05
2023-04-27T15:10:31.936Z,5.43
2023-04-27T15:12:59.446Z,7.28
2023-04-27T15:15:26.867Z,5.78
2023-04-27T15:17:54.433Z,6.65
2023-04-27T15:20:21.882Z,6.38
2023-04-27T15:22:49.411Z,6.53
2023-04-27T15:25:16.890Z,6.10
2023-04-27T15:27:44.522Z,5.68
2023-04-27T15:30:13.446Z,7.30
2023-04-27T15:32:41.128Z,5.82
2023-04-27T15:35:09.671Z,6.50
2023-04-27T15:37:37.423Z,7.35
2023-04-27T15:40:07.518Z,6.80
2023-04-27T15:42:35.056Z,7.40
2023-04-27T15:45:02.837Z,7.30
2023-04-27T15:47:30.320Z,8.32
2023-04-27T15:49:58.539Z,8.82
2023-04-27T15:52:27.305Z,8.70
2023-04-27T15:54:55.453Z,9.02
2023-04-27T15:57:22.926Z,8.63
2023-04-27T15:59:50.386Z,8.93
2023-04-27T16:02:19.010Z,9.05
2023-04-27T16:04:46.734Z,10.13
2023-04-27T16:07:14.399Z,11.05
2023-04-27T16:09:41.973Z,9.15
2023-04-27T16:12:09.415Z,12.00
2023-04-27T16:14:36.928Z,9.88
2023-04-27T16:17:04.405Z,10.75
2023-04-27T16:19:31.885Z,11.20
2023-04-27T16:22:01.279Z,11.75
2023-04-27T16:24:31.413Z,13.10
2023-04-27T16:26:59.080Z,12.02
2023-04-27T16:29:26.561Z,9.32
2023-04-27T16:31:54.017Z,13.02
2023-04-27T16:34:21.463Z,15.32
2023-04-27T16:36:49.905Z,10.57
2023-04-27T16:39:19.426Z,14.57
2023-04-27T16:41:47.927Z,14.15
2023-04-27T16:44:15.869Z,10.75
2023-04-27T16:46:43.428Z,10.43
2023-04-27T16:49:10.980Z,10.68
2023-04-27T16:51:38.558Z,13.43
2023-04-27T16:54:06.152Z,13.35
2023-04-27T16:56:36.189Z,11.68
2023-04-27T16:59:05.079Z,10.75
2023-04-27T17:01:32.641Z,12.85
2023-04-27T17:04:02.404Z,13.95
2023-04-27T17:06:30.166Z,13.13
2023-04-27T17:08:58.422Z,14.50
2023-04-27T17:11:26.500Z,14.27
2023-04-27T17:13:54.139Z,11.80
2023-04-27T17:16:21.974Z,12.75
2023-04-27T17:18:49.690Z,12.80
2023-04-27T17:21:17.484Z,10.05
2023-04-27T17:23:50.164Z,13.93
2023-04-27T17:26:20.024Z,10.85
2023-04-27T17:28:48.918Z,12.02
2023-04-27T17:31:17.775Z,16.17
2023-04-27T17:33:45.894Z,13.32
2023-04-27T17:36:15.013Z,14.48
2023-04-27T17:38:42.648Z,12.18
2023-04-27T17:41:10.250Z,11.07
2023-04-27T17:43:38.123Z,9.13
2023-04-27T17:46:09.880Z,10.27
2023-04-27T17:48:38.106Z,10.02
2023-04-27T17:51:05.547Z,10.88
2023-04-27T17:53:33.034Z,9.35
2023-04-27T17:56:00.596Z,9.48
2023-04-27T17:58:28.235Z,11.85
2023-04-27T18:00:55.704Z,10.23
2023-04-27T18:03:23.586Z,11.43
2023-04-27T18:05:52.032Z,10.60
2023-04-27T18:08:19.492Z,13.13
2023-04-27T18:10:46.989Z,11.63
2023-04-27T18:13:14.573Z,9.35
2023-04-27T18:15:42.112Z,9.40
2023-04-27T18:18:10.975Z,8.05
2023-04-27T18:20:38.468Z,7.93
2023-04-27T18:23:06.117Z,9.65
2023-04-27T18:25:33.563Z,9.50
2023-04-27T18:28:02.270Z,7.93
2023-04-27T18:30:31.207Z,8.15
2023-04-27T18:32:58.772Z,8.63
2023-04-27T18:35:26.319Z,11.23
2023-04-27T18:37:53.802Z,10.55
2023-04-27T18:40:22.163Z,9.02
2023-04-27T18:42:50.028Z,10.18
2023-04-27T18:45:17.559Z,8.82
2023-04-27T18:47:45.016Z,10.27
2023-04-27T18:50:15.799Z,9.00
2023-04-27T18:52:43.290Z,8.23
2023-04-27T18:55:11.301Z,10.90
2023-04-27T18:57:38.816Z,9.10
2023-04-27T19:00:06.864Z,8.50
2023-04-27T19:02:35.102Z,8.80
2023-04-27T19:05:12.361Z,8.20
2023-04-27T19:07:41.082Z,7.15
2023-04-27T19:10:09.186Z,8.63
2023-04-27T19:12:36.716Z,7.90
2023-04-27T19:15:04.969Z,8.05
2023-04-27T19:17:32.798Z,8.30
2023-04-27T19:20:00.637Z,9.80
2023-04-27T19:22:29.399Z,9.52
2023-04-27T19:24:56.912Z,10.65
2023-04-27T19:27:24.459Z,8.02
2023-04-27T19:29:57.304Z,11.65
2023-04-27T19:32:27.674Z,9.55
2023-04-27T19:34:57.032Z,8.50
2023-04-27T19:37:26.122Z,8.00
2023-04-27T19:39:53.679Z,9.80
2023-04-27T19:42:21.110Z,9.20
2023-04-27T19:44:48.715Z,8.70
2023-04-27T19:47:16.292Z,10.05
2023-04-27T19:49:43.786Z,8.70
2023-04-27T19:52:11.334Z,10.80
2023-04-27T19:54:38.838Z,9.20
2023-04-27T19:57:06.714Z,8.75
2023-04-27T19:59:34.267Z,8.23
2023-04-27T20:02:01.885Z,7.35
2023-04-27T20:04:29.739Z,8.00
2023-04-27T20:06:57.363Z,8.30
2023-04-27T20:09:24.856Z,8.63
2023-04-27T20:11:52.328Z,8.32
2023-04-27T20:14:19.771Z,9.30
2023-04-27T20:16:47.891Z,9.27
2023-04-27T20:19:17.859Z,8.95
2023-04-27T20:21:45.565Z,10.77
2023-04-27T20:24:13.259Z,7.93
2023-04-27T20:26:40.895Z,10.52
2023-04-27T20:29:08.423Z,7.65
2023-04-27T20:31:36.432Z,8.50
2023-04-27T20:34:04.025Z,9.45
2023-04-27T20:36:32.195Z,6.93
2023-04-27T20:39:00.958Z,7.97
2023-04-27T20:41:30.537Z,7.22
2023-04-27T20:43:58.566Z,7.03
2023-04-27T20:46:26.333Z,7.85
2023-04-27T20:48:55.894Z,9.73
2023-04-27T20:51:23.687Z,9.93
2023-04-27T20:53:51.185Z,10.75
2023-04-27T20:56:18.617Z,7.95
2023-04-27T20:58:46.334Z,9.85
2023-04-27T21:01:13.898Z,7.97
2023-04-27T21:03:41.664Z,8.43
2023-04-27T21:06:09.426Z,9.63
2023-04-27T21:08:37.527Z,10.85
2023-04-27T21:11:05.241Z,9.30
2023-04-27T21:13:32.782Z,8.88
2023-04-27T21:16:00.934Z,10.70
2023-04-27T21:18:30.298Z,10.15
2023-04-27T21:20:58.682Z,10.05
2023-04-27T21:23:26.239Z,11.70
2023-04-27T21:25:53.855Z,12.68
2023-04-27T21:28:21.615Z,9.07
2023-04-27T21:30:49.210Z,10.65
2023-04-27T21:33:16.795Z,9.65
2023-04-27T21:35:44.285Z,12.00
2023-04-27T21:38:11.846Z,11.20
2023-04-27T21:40:39.402Z,11.18
2023-04-27T21:43:08.052Z,11.63
2023-04-27T21:45:36.177Z,12.57
2023-04-27T21:48:03.849Z,11.02
2023-04-27T21:50:31.421Z,14.48
2023-04-27T21:52:58.889Z,11.85
2023-04-27T21:55:26.364Z,13.30
2023-04-27T21:57:53.804Z,10.15
2023-04-27T22:00:21.277Z,12.02
2023-04-27T22:02:49.605Z,10.73
2023-04-27T22:05:20.947Z,10.85
2023-04-27T22:07:48.470Z,11.93
2023-04-27T22:10:16.194Z,12.65
2023-04-27T22:12:43.720Z,12.18
2023-04-27T22:15:11.475Z,11.65
2023-04-27T22:17:39.719Z,8.77
2023-04-27T22:20:14.255Z,10.27
2023-04-27T22:22:41.757Z,13.80
2023-04-27T22:25:13.979Z,10.20
2023-04-27T22:27:45.197Z,9.73
2023-04-27T22:30:14.070Z,13.05
2023-04-27T22:32:41.812Z,10.93
2023-04-27T22:35:24.660Z,11.05
2023-04-27T22:37:59.121Z,11.40
2023-04-27T22:40:26.955Z,12.95
2023-04-27T22:42:55.130Z,14.48
2023-04-27T22:45:23.040Z,10.27
2023-04-27T22:47:50.959Z,11.13
2023-04-27T22:50:18.717Z,14.55
2023-04-27T22:52:46.344Z,12.95
2023-04-27T22:55:13.851Z,13.32
2023-04-27T22:57:41.879Z,12.15
2023-04-27T23:00:11.480Z,12.88
2023-04-27T23:02:40.496Z,14.05
2023-04-27T23:05:09.396Z,11.98
2023-04-27T23:07:37.215Z,12.30
2023-04-27T23:10:05.875Z,11.90
2023-04-27T23:12:33.661Z,13.52
2023-04-27T23:15:03.957Z,13.10
2023-04-27T23:17:32.473Z,12.05
2023-04-27T23:20:01.741Z,12.48
2023-04-27T23:22:29.267Z,10.38
2023-04-27T23:24:56.749Z,13.60
2023-04-27T23:27:25.118Z,13.18
2023-04-27T23:29:53.047Z,11.95
2023-04-27T23:32:21.007Z,11.93
2023-04-27T23:34:48.609Z,10.93
2023-04-27T23:37:16.079Z,13.07
2023-04-27T23:39:43.538Z,12.18
2023-04-27T23:42:11.342Z,13.52
2023-04-27T23:44:39.492Z,11.45
2023-04-27T23:47:06.919Z,10.75
2023-04-27T23:49:34.993Z,10.35
2023-04-27T23:52:02.443Z,12.75
2023-04-27T23:54:33.001Z,9.35
2023-04-27T23:57:00.668Z,11.85
2023-04-27T23:59:28.408Z,13.80
